Latest Weather Observations for Carnarvon

IDW60801

Issued at 5:32 pm WST Sunday 30 August 2015 (issued every 30 minutes, with the page automatically refreshed every 10 minutes)

About weather observations | Map of weather stations | Latest weather observations for WA | Other Formats
Station Details ID: 006011 Name: CARNARVON AIRPORT Lat: -24.89 Lon: 113.67 Height: 4.0 m
Data from the previous 72 hours. | See also: Recent months at Carnarvon
Date/Time
WST
Temp
°C
App
Temp
°C
Dew
Point
Rel
Hum
%
Delta-T
°C
Wind Press
QNH
hPa
Press
MSL
hPa
Rain
since 9 am
mm
Dir
 
Spd
km/h
Gust
km/h
Spd
kts
Gust
kts
30/05:30pm 21.2 18.6 13.7 62 4.3 SSW 20 26 11 14 1019.2 - 0.0
30/05:00pm 21.7 19.2 14.1 62 4.4 SW 20 24 11 13 1019.0 - 0.0
30/04:30pm 22.2 19.3 14.1 60 4.7 SSW 22 28 12 15 1018.9 - 0.0
30/04:00pm 22.7 20.1 13.7 56 5.2 SSW 20 28 11 15 1018.8 - 0.0
30/03:30pm 23.0 20.0 13.7 55 5.4 SSW 22 28 12 15 1018.7 - 0.0
30/03:00pm 23.4 19.8 13.2 52 5.9 SSW 24 28 13 15 1018.7 1018.7 0.0
30/02:30pm 22.9 19.7 13.0 53 5.7 SSW 22 28 12 15 1018.9 - 0.0
30/02:00pm 23.5 19.8 13.9 55 5.6 SSW 26 30 14 16 1019.0 - 0.0
30/01:30pm 23.1 19.4 14.0 56 5.3 SSW 26 32 14 17 1019.2 - 0.0
30/01:00pm 24.0 20.9 13.5 52 6.1 SSW 22 28 12 15 1019.4 - 0.0
30/12:30pm 23.2 19.4 14.7 58 5.0 SSW 28 33 15 18 1019.8 - 0.0
30/12:00pm 22.7 19.3 14.7 60 4.7 SSW 26 32 14 17 1020.2 1020.2 0.0
30/11:30am 22.5 19.2 14.9 62 4.5 SSW 26 32 14 17 1020.6 - 0.0
30/11:00am 22.6 19.7 15.0 62 4.5 S 24 30 13 16 1020.9 - 0.0
30/10:30am 21.9 18.6 14.9 64 4.1 S 26 32 14 17 1020.9 - 0.0
30/10:00am 22.1 19.5 14.8 63 4.3 S 22 28 12 15 1020.8 - 0.0
30/09:30am 21.8 20.0 15.4 67 3.8 S 19 24 10 13 1020.8 - 0.0
30/09:00am 21.5 19.7 16.0 71 3.3 S 20 24 11 13 1020.5 1020.5 0.2
30/08:30am 20.1 18.9 17.0 82 1.9 S 19 22 10 12 1020.3 - 0.2
30/08:00am 18.3 19.4 17.0 92 0.8 SE 7 13 4 7 1020.1 - 0.2
30/07:30am 17.7 18.3 16.7 94 0.6 SSE 9 11 5 6 1019.6 - 0.2
30/07:00am 17.7 18.2 16.5 93 0.7 S 9 11 5 6 1019.1 - 0.2
30/06:30am 16.9 18.8 15.7 93 0.7 CALM 0 0 0 0 1018.7 - 0.2
30/06:00am 15.4 16.7 14.0 91 0.8 CALM 0 0 0 0 1018.4 1018.4 0.0
30/05:30am 16.0 17.3 14.2 89 1.0 CALM 0 0 0 0 1018.0 - 0.0
30/05:00am 15.5 16.0 13.9 90 0.9 SE 4 7 2 4 1017.8 - 0.0
30/04:30am 17.4 17.0 14.1 81 1.9 SW 9 9 5 5 1017.4 - 0.0
30/04:00am 18.9 19.5 16.7 87 1.3 WSW 9 11 5 6 1017.4 - 0.0
30/03:30am 18.5 18.5 16.3 87 1.3 WSW 11 13 6 7 1017.4 - 0.0
30/03:00am 18.7 19.1 16.4 86 1.4 SW 9 11 5 6 1017.5 1017.5 0.0
30/02:30am 18.4 18.5 16.4 88 1.2 SW 11 13 6 7 1017.6 - 0.0
30/02:00am 16.7 18.0 14.1 85 1.5 CALM 0 0 0 0 1017.8 - 0.0
30/01:30am 18.4 19.2 15.9 85 1.5 W 6 7 3 4 1018.0 - 0.0
30/01:00am 18.1 18.8 15.5 85 1.5 NW 6 6 3 3 1018.1 - 0.0
30/12:30am 18.8 19.7 16.1 84 1.6 W 6 7 3 4 1018.2 - 0.0
30/12:00am 19.1 19.5 16.4 84 1.6 W 9 9 5 5 1018.1 1018.1 0.0
 
Date/Time
WST
Temp
°C
App
Temp
°C
Dew
Point
Rel
Hum
%
Delta-T
°C
Wind Press
QNH
hPa
Press
MSL
hPa
Rain
since 9 am
mm
Dir
 
Spd
km/h
Gust
km/h
Spd
kts
Gust
kts
29/11:30pm 19.1 19.4 16.1 83 1.8 W 9 13 5 7 1018.2 - 0.0
29/11:00pm 16.7 16.8 13.9 83 1.6 WNW 6 6 3 3 1018.5 - 0.0
29/10:30pm 16.7 16.9 14.2 85 1.4 WNW 6 6 3 3 1018.5 - 0.0
29/10:00pm 16.9 17.1 14.1 83 1.6 W 6 7 3 4 1018.6 - 0.0
29/09:30pm 18.6 18.6 15.2 80 2.0 W 9 11 5 6 1018.4 - 0.0
29/09:00pm 19.1 19.1 15.2 78 2.3 W 9 9 5 5 1018.4 1018.4 0.0
29/08:30pm 19.5 19.5 15.2 76 2.5 W 9 11 5 6 1018.1 - 0.0
29/08:00pm 19.7 19.7 15.1 75 2.7 W 9 11 5 6 1017.8 - 0.0
29/07:30pm 19.9 20.0 15.5 76 2.6 W 9 11 5 6 1017.5 - 0.0
29/07:00pm 20.2 20.0 14.7 70 3.2 W 9 11 5 6 1017.1 - 0.0
29/06:30pm 20.5 19.9 14.5 68 3.5 W 11 15 6 8 1016.8 - 0.0
29/06:00pm 21.2 20.0 14.1 64 4.1 W 13 15 7 8 1016.6 1016.6 0.0
29/05:30pm 21.8 20.3 14.1 61 4.5 WSW 15 20 8 11 1016.4 - 0.0
29/05:00pm 22.4 20.4 13.8 58 5.0 W 17 22 9 12 1016.1 - 0.0
29/04:30pm 22.5 20.6 14.1 59 4.9 WSW 17 20 9 11 1016.0 - 0.0
29/04:00pm 22.5 20.4 13.5 56 5.2 W 17 26 9 14 1015.9 - 0.0
29/03:30pm 23.3 21.5 13.3 53 5.8 W 15 20 8 11 1015.8 - 0.0
29/03:00pm 23.6 21.4 13.4 52 5.9 W 17 24 9 13 1016.0 1016.0 0.0
29/02:30pm 23.2 21.1 13.5 54 5.6 W 17 24 9 13 1016.0 - 0.0
29/02:00pm 23.7 21.9 13.3 52 6.0 W 15 24 8 13 1016.1 - 0.0
29/01:30pm 23.3 20.9 12.6 51 6.1 WNW 17 22 9 12 1016.4 - 0.0
29/01:00pm 22.2 20.1 12.5 54 5.5 WSW 15 22 8 12 1016.8 - 0.0
29/12:30pm 22.6 20.7 13.0 54 5.5 SW 15 24 8 13 1017.1 - 0.0
29/12:00pm 22.3 20.5 12.2 52 5.7 WSW 13 20 7 11 1017.5 1017.5 0.0
29/11:30am 22.4 21.0 12.1 52 5.8 WSW 11 19 6 10 1017.8 - 0.0
29/11:00am 22.0 20.7 12.5 54 5.4 WSW 11 19 6 10 1018.1 - 0.0
29/10:30am 22.0 20.7 12.5 54 5.4 WSW 11 17 6 9 1018.3 - 0.0
29/10:00am 21.4 20.1 12.5 57 5.0 WSW 11 19 6 10 1018.3 - 0.0
29/09:30am 21.3 20.5 12.8 58 4.8 W 9 17 5 9 1018.1 - 0.0
29/09:00am 20.9 21.0 14.0 64 4.0 NNE 6 9 3 5 1018.0 1018.0 0.0
29/08:30am 18.9 18.6 14.4 75 2.6 NNE 9 11 5 6 1017.7 - 0.0
29/08:00am 18.1 18.2 14.4 79 2.1 NNE 7 9 4 5 1017.6 - 0.0
29/07:30am 15.7 15.2 13.9 89 1.0 NNE 9 11 5 6 1017.4 - 0.0
29/07:00am 14.2 13.0 12.7 91 0.8 NE 11 13 6 7 1017.0 - 0.0
29/06:30am 14.7 14.0 12.1 84 1.4 NNE 7 11 4 6 1016.7 - 0.0
29/06:00am 18.1 17.4 13.3 73 2.7 WSW 9 9 5 5 1016.6 1016.6 0.0
29/05:30am 18.2 16.9 12.6 70 3.1 SW 11 13 6 7 1016.3 - 0.0
29/05:00am 17.9 17.2 13.1 73 2.7 SW 9 11 5 6 1016.3 - 0.0
29/04:30am 17.2 17.0 13.5 79 2.1 NE 7 13 4 7 1016.1 - 0.0
29/04:00am 15.9 16.3 13.8 87 1.2 ENE 4 7 2 4 1016.2 - 0.0
29/03:30am 15.8 16.6 13.8 88 1.1 E 2 6 1 3 1016.3 - 0.0
29/03:00am 18.4 18.3 15.0 80 2.0 SW 9 11 5 6 1016.3 1016.3 0.0
29/02:30am 17.9 17.7 14.6 81 1.9 SSW 9 13 5 7 1016.4 - 0.0
29/02:00am 18.3 17.7 14.5 78 2.2 SSW 11 15 6 8 1016.6 - 0.0
29/01:30am 18.3 17.3 14.5 78 2.2 SSW 13 15 7 8 1016.7 - 0.0
29/01:00am 18.1 17.0 14.3 78 2.2 SW 13 15 7 8 1016.9 - 0.0
29/12:30am 18.5 17.0 14.1 75 2.5 SW 15 20 8 11 1017.0 - 0.0
29/12:00am 18.5 17.0 14.1 75 2.5 SW 15 20 8 11 1017.1 1017.1 0.0
 
Date/Time
WST
Temp
°C
App
Temp
°C
Dew
Point
Rel
Hum
%
Delta-T
°C
Wind Press
QNH
hPa
Press
MSL
hPa
Rain
since 9 am
mm
Dir
 
Spd
km/h
Gust
km/h
Spd
kts
Gust
kts
28/11:30pm 18.9 16.9 14.0 73 2.8 SW 17 24 9 13 1017.2 - 0.0
28/11:00pm 18.9 16.6 14.0 73 2.8 SW 19 24 10 13 1017.2 - 0.0
28/10:30pm 19.1 17.0 14.6 75 2.6 SW 19 26 10 14 1017.3 - 0.0
28/10:00pm 19.3 17.1 15.0 76 2.5 SW 20 26 11 14 1017.4 - 0.0
28/09:30pm 19.4 16.8 14.9 75 2.6 SW 22 28 12 15 1017.1 - 0.0
28/09:00pm 19.4 17.3 15.1 76 2.5 SW 20 28 11 15 1017.0 1017.0 0.0
28/08:30pm 19.3 17.3 15.4 78 2.3 SW 20 28 11 15 1016.8 - 0.0
28/08:00pm 19.4 17.3 15.1 76 2.5 SW 20 28 11 15 1016.5 - 0.0
28/07:30pm 19.2 17.4 15.5 79 2.2 SW 19 26 10 14 1016.1 - 0.0
28/07:00pm 19.2 17.1 15.1 77 2.4 SW 20 26 11 14 1015.9 - 0.0
28/06:30pm 19.3 16.9 14.5 74 2.8 SW 20 30 11 16 1015.6 - 0.0
28/06:00pm 19.8 16.9 14.1 69 3.3 SW 22 28 12 15 1015.4 1015.4 0.0
28/05:30pm 20.3 17.5 14.3 68 3.5 SW 22 28 12 15 1015.1 - 0.0
28/05:00pm 20.7 18.2 14.0 65 3.9 WSW 20 26 11 14 1014.9 - 0.0
28/04:30pm 21.1 18.2 13.0 60 4.6 WSW 20 24 11 13 1014.9 - 0.0
28/04:00pm 21.3 18.2 13.5 61 4.5 SSW 22 28 12 15 1014.9 - 0.0
28/03:30pm 21.4 18.8 13.8 62 4.4 SSW 20 24 11 13 1014.9 - 0.0
28/03:00pm 21.4 18.6 13.2 59 4.7 SSW 20 28 11 15 1015.0 1015.0 0.0
28/02:30pm 21.5 18.0 13.5 60 4.6 SSW 24 32 13 17 1015.0 - 0.0
28/02:00pm 21.6 18.2 13.8 61 4.5 SSW 24 30 13 16 1015.2 - 0.0
28/01:30pm 21.6 17.9 13.8 61 4.5 SSW 26 32 14 17 1015.6 - 0.0
28/01:00pm 20.9 17.1 13.6 63 4.2 SSW 26 32 14 17 1016.0 - 0.0
28/12:30pm 21.2 17.7 13.3 60 4.5 SSW 24 32 13 17 1016.3 - 0.0
28/12:00pm 21.1 17.3 13.6 62 4.3 SSW 26 32 14 17 1016.9 1016.9 0.0
28/11:30am 20.7 16.9 13.7 64 4.0 SSW 26 32 14 17 1017.1 - 0.0
28/11:00am 20.9 17.2 14.0 64 4.0 SSW 26 33 14 18 1017.5 - 0.0
28/10:30am 20.5 16.7 13.7 65 3.9 SSW 26 32 14 17 1017.8 - 0.0
28/10:00am 21.1 18.4 13.0 60 4.6 S 19 26 10 14 1018.1 - 0.0
28/09:30am 20.5 17.6 12.9 61 4.3 SSE 20 28 11 15 1018.3 - 0.0
28/09:00am 19.9 17.2 13.0 64 3.9 SSE 19 26 10 14 1018.2 1018.2 0.0
28/08:30am 19.0 16.3 13.0 68 3.4 SE 19 24 10 13 1018.0 - 0.0
28/08:00am 18.2 16.0 13.2 72 2.8 SE 17 20 9 11 1017.9 - 0.0
28/07:30am 16.2 14.8 13.3 83 1.6 ESE 13 17 7 9 1017.7 - 0.0
28/07:00am 14.1 13.3 13.0 93 0.6 SE 9 11 5 6 1017.3 - 0.0
28/06:30am 13.0 12.0 12.4 96 0.3 ESE 9 11 5 6 1017.0 - 0.0
28/06:00am 11.7 10.6 10.5 92 0.6 E 7 9 4 5 1016.8 1016.8 0.0
28/05:30am 11.8 10.4 11.0 95 0.4 SE 9 11 5 6 1016.5 - 0.0
28/05:00am 12.5 10.9 11.7 95 0.4 SE 11 11 6 6 1016.2 - 0.0
28/04:30am 12.2 11.0 11.6 96 0.3 ESE 9 9 5 5 1016.2 - 0.0
28/04:00am 12.7 12.0 11.9 95 0.4 ESE 7 9 4 5 1016.2 - 0.0
28/03:30am 13.0 12.3 11.9 93 0.6 SE 7 9 4 5 1016.2 - 0.0
28/03:00am 13.4 13.4 12.3 93 0.6 SSE 4 7 2 4 1016.3 1016.3 0.0
28/02:30am 13.1 12.2 11.4 89 0.9 ESE 7 9 4 5 1016.5 - 0.0
28/02:00am 13.5 12.0 12.0 91 0.8 SSE 11 11 6 6 1016.6 - 0.0
28/01:30am 14.6 13.3 12.6 88 1.1 SSE 11 13 6 7 1016.6 - 0.0
28/01:00am 15.7 14.2 13.2 85 1.4 SSE 13 15 7 8 1016.7 - 0.0
28/12:30am 17.2 15.6 13.8 80 1.9 SSE 15 19 8 10 1016.8 - 0.0
28/12:00am 18.1 16.7 14.6 80 2.0 S 15 19 8 10 1016.9 1016.9 0.0
 
Date/Time
WST
Temp
°C
App
Temp
°C
Dew
Point
Rel
Hum
%
Delta-T
°C
Wind Press
QNH
hPa
Press
MSL
hPa
Rain
since 9 am
mm
Dir
 
Spd
km/h
Gust
km/h
Spd
kts
Gust
kts
27/11:30pm 18.8 16.6 15.0 78 2.2 S 20 26 11 14 1016.8 - 0.0
27/11:00pm 19.0 16.0 14.7 76 2.5 S 24 30 13 16 1016.9 - 0.0
27/10:30pm 19.1 16.3 14.4 74 2.7 S 22 33 12 18 1016.9 - 0.0
27/10:00pm 19.2 15.7 14.5 74 2.7 S 26 33 14 18 1017.0 - 0.0
27/09:30pm 19.3 15.8 14.5 74 2.8 S 26 33 14 18 1017.1 - 0.0
27/09:00pm 19.4 16.8 14.9 75 2.6 SSW 22 30 12 16 1017.2 1017.2 0.0
27/08:30pm 19.4 16.4 14.8 75 2.7 SSW 24 32 13 17 1017.0 - 0.0
27/08:00pm 19.1 17.1 15.0 77 2.4 SW 19 26 10 14 1017.0 - 0.0
27/07:30pm 19.3 16.9 14.5 74 2.8 SW 20 24 11 13 1016.8 - 0.0
27/07:00pm 19.3 17.2 14.7 74 2.7 SW 19 22 10 12 1016.7 - 0.0
27/06:30pm 19.6 17.9 14.6 73 2.9 SW 17 22 9 12 1016.5 - 0.0
27/06:00pm 19.9 17.7 14.4 70 3.2 SW 19 26 10 14 1016.3 1016.3 0.0

Other Formats:

Comma delimited format used in spreadsheet applications
http://www.bom.gov.au/fwo/IDW60801/IDW60801.94300.axf

JavaScript Object Notation format (JSON) in row-major order
http://www.bom.gov.au/fwo/IDW60801/IDW60801.94300.json